PWSweather.com
Personal Weather Stations
Station Observations
SHAHALMS1
Eftra, Falkenberg, HA

EftraFalkenberg, HA

Lat: 56.85, Lon: 12.65

Elevation: 140

Station Type:

http://hem.passagen.se/risarp101

High Low Average
Temperature 49.1°F9.5°C 40.1°F4.5°C 43.8°F6.6°C
Dew Point 42.7°F5.9°C 38.0°F3.3°C 39.9°F4.4°C
Winds 10.3 mph 16.6 kmh 0.8 mph 1.3 kmh 7.0 mph S11.3 kmh S
Wind Gusts 30.1 mph48.4 kmh 5.4 mph8.7 kmh 16.0 mph25.7 kmh
Humidity 95% 72% 86%
Pressure 30.51 in1033.2 mb 30.27 in1025.1 mb -
Precipitation 0.00 in0.0 mm - -
Hour Temp Dew Point Humidity Winds Wind Gusts Pressure Precip Precip Rate Daily Precip Total
12:00 AM 43.5°F6.4°C 41.9°F5.5°C 94% 4.0 mph WNW6.4 kmh WNW 11.8 mph19.0 kmh 30.39 in1029.1 mb 0.00 in0.0 mm 0.00 in0.0 mm 0.00 in0.0 mm
12:15 AM 43.3°F6.3°C 41.7°F5.4°C 94% 5.0 mph NW8.0 kmh NW 12.5 mph20.1 kmh 30.39 in1029.1 mb 0.00 in0.0 mm 0.00 in0.0 mm 0.00 in0.0 mm
12:30 AM 43.0°F6.1°C 41.4°F5.2°C 94% 5.7 mph NW9.2 kmh NW 10.4 mph16.7 kmh 30.42 in1030.1 mb 0.00 in0.0 mm 0.00 in0.0 mm 0.00 in0.0 mm
12:45 AM 42.8°F6.0°C 40.9°F4.9°C 93% 6.3 mph NW10.1 kmh NW 12.9 mph20.8 kmh 30.42 in1030.1 mb 0.00 in0.0 mm 0.00 in0.0 mm 0.00 in0.0 mm
01:00 AM 42.6°F5.9°C 40.7°F4.8°C 93% 7.2 mph NW11.6 kmh NW 12.2 mph19.6 kmh 30.42 in1030.1 mb 0.00 in0.0 mm 0.00 in0.0 mm 0.00 in0.0 mm
01:15 AM 42.6°F5.9°C 40.7°F4.8°C 93% 2.7 mph NW4.3 kmh NW 8.9 mph14.3 kmh 30.42 in1030.1 mb 0.00 in0.0 mm 0.00 in0.0 mm 0.00 in0.0 mm
01:30 AM 42.1°F5.6°C 39.9°F4.4°C 92% 4.5 mph NW7.2 kmh NW 11.5 mph18.5 kmh 30.42 in1030.1 mb 0.00 in0.0 mm 0.00 in0.0 mm 0.00 in0.0 mm
01:45 AM 41.5°F5.3°C 39.4°F4.1°C 92% 5.0 mph NW8.0 kmh NW 11.1 mph17.9 kmh 30.42 in1030.1 mb 0.00 in0.0 mm 0.00 in0.0 mm 0.00 in0.0 mm
02:00 AM 41.2°F5.1°C 39.0°F3.9°C 92% 0.9 mph NNW1.4 kmh NNW 6.8 mph10.9 kmh 30.39 in1029.1 mb 0.00 in0.0 mm 0.00 in0.0 mm 0.00 in0.0 mm
02:15 AM 41.4°F5.2°C 39.2°F4.0°C 92% 7.1 mph NNW11.4 kmh NNW 12.5 mph20.1 kmh 30.42 in1030.1 mb 0.00 in0.0 mm 0.00 in0.0 mm 0.00 in0.0 mm
02:30 AM 41.2°F5.1°C 39.0°F3.9°C 92% 3.0 mph NW4.8 kmh NW 7.9 mph12.7 kmh 30.45 in1031.2 mb 0.00 in0.0 mm 0.00 in0.0 mm 0.00 in0.0 mm
02:45 AM 41.4°F5.2°C 39.2°F4.0°C 92% 2.7 mph NW4.3 kmh NW 6.8 mph10.9 kmh 30.45 in1031.2 mb 0.00 in0.0 mm 0.00 in0.0 mm 0.00 in0.0 mm
03:00 AM 41.4°F5.2°C 39.5°F4.2°C 93% 1.4 mph NNW2.3 kmh NNW 5.7 mph9.2 kmh 30.42 in1030.1 mb 0.00 in0.0 mm 0.00 in0.0 mm 0.00 in0.0 mm
03:15 AM 41.4°F5.2°C 39.2°F4.0°C 92% 3.9 mph N6.3 kmh N 9.3 mph15.0 kmh 30.45 in1031.2 mb 0.00 in0.0 mm 0.00 in0.0 mm 0.00 in0.0 mm
03:30 AM 41.0°F5.0°C 38.9°F3.8°C 92% 0.8 mph NNE1.3 kmh NNE 5.4 mph8.7 kmh 30.45 in1031.2 mb 0.00 in0.0 mm 0.00 in0.0 mm 0.00 in0.0 mm
03:45 AM 40.6°F4.8°C 38.5°F3.6°C 92% 1.7 mph E2.7 kmh E 9.7 mph15.6 kmh 30.42 in1030.1 mb 0.00 in0.0 mm 0.00 in0.0 mm 0.00 in0.0 mm
04:00 AM 40.5°F4.7°C 38.3°F3.5°C 92% 6.0 mph E9.7 kmh E 11.5 mph18.5 kmh 30.45 in1031.2 mb 0.00 in0.0 mm 0.00 in0.0 mm 0.00 in0.0 mm
04:15 AM 40.3°F4.6°C 38.1°F3.4°C 92% 6.9 mph E11.1 kmh E 12.2 mph19.6 kmh 30.45 in1031.2 mb 0.00 in0.0 mm 0.00 in0.0 mm 0.00 in0.0 mm
04:30 AM 40.1°F4.5°C 38.0°F3.3°C 92% 9.1 mph E14.6 kmh E 16.5 mph26.6 kmh 30.45 in1031.2 mb 0.00 in0.0 mm 0.00 in0.0 mm 0.00 in0.0 mm
04:45 AM 40.1°F4.5°C 38.0°F3.3°C 92% 8.4 mph E13.5 kmh E 16.5 mph26.6 kmh 30.45 in1031.2 mb 0.00 in0.0 mm 0.00 in0.0 mm 0.00 in0.0 mm
05:00 AM 40.1°F4.5°C 38.0°F3.3°C 92% 8.8 mph E14.2 kmh E 14.0 mph22.5 kmh 30.42 in1030.1 mb 0.00 in0.0 mm 0.00 in0.0 mm 0.00 in0.0 mm
05:15 AM 40.1°F4.5°C 38.0°F3.3°C 92% 5.6 mph E9.0 kmh E 9.7 mph15.6 kmh 30.45 in1031.2 mb 0.00 in0.0 mm 0.00 in0.0 mm 0.00 in0.0 mm
05:30 AM 40.1°F4.5°C 38.0°F3.3°C 92% 6.6 mph ESE10.6 kmh ESE 12.2 mph19.6 kmh 30.45 in1031.2 mb 0.00 in0.0 mm 0.00 in0.0 mm 0.00 in0.0 mm
05:45 AM 40.1°F4.5°C 38.0°F3.3°C 92% 9.0 mph SE14.5 kmh SE 16.5 mph26.6 kmh 30.45 in1031.2 mb 0.00 in0.0 mm 0.00 in0.0 mm 0.00 in0.0 mm
06:00 AM 40.1°F4.5°C 38.0°F3.3°C 92% 8.6 mph SE13.8 kmh SE 16.8 mph27.0 kmh 30.48 in1032.2 mb 0.00 in0.0 mm 0.00 in0.0 mm 0.00 in0.0 mm
06:15 AM 40.1°F4.5°C 38.0°F3.3°C 92% 7.5 mph SE12.1 kmh SE 17.2 mph27.7 kmh 30.48 in1032.2 mb 0.00 in0.0 mm 0.00 in0.0 mm 0.00 in0.0 mm
06:30 AM 40.3°F4.6°C 38.4°F3.6°C 93% 4.5 mph SE7.2 kmh SE 13.6 mph21.9 kmh 30.48 in1032.2 mb 0.00 in0.0 mm 0.00 in0.0 mm 0.00 in0.0 mm
06:45 AM 40.5°F4.7°C 38.6°F3.7°C 93% 1.9 mph SSE3.1 kmh SSE 7.9 mph12.7 kmh 30.48 in1032.2 mb 0.00 in0.0 mm 0.00 in0.0 mm 0.00 in0.0 mm
07:00 AM 40.6°F4.8°C 38.8°F3.8°C 93% 4.9 mph SE7.9 kmh SE 10.4 mph16.7 kmh 30.45 in1031.2 mb 0.00 in0.0 mm 0.00 in0.0 mm 0.00 in0.0 mm
07:15 AM 41.0°F5.0°C 39.1°F3.9°C 93% 4.2 mph ESE6.8 kmh ESE 11.8 mph19.0 kmh 30.48 in1032.2 mb 0.00 in0.0 mm 0.00 in0.0 mm 0.00 in0.0 mm
07:30 AM 41.4°F5.2°C 39.5°F4.2°C 93% 3.5 mph SSE5.6 kmh SSE 10.0 mph16.1 kmh 30.48 in1032.2 mb 0.00 in0.0 mm 0.00 in0.0 mm 0.00 in0.0 mm
07:45 AM 41.4°F5.2°C 39.2°F4.0°C 92% 4.9 mph ESE7.9 kmh ESE 11.8 mph19.0 kmh 30.48 in1032.2 mb 0.00 in0.0 mm 0.00 in0.0 mm 0.00 in0.0 mm
08:00 AM 41.9°F5.5°C 39.7°F4.3°C 92% 5.3 mph SE8.5 kmh SE 13.6 mph21.9 kmh 30.51 in1033.2 mb 0.00 in0.0 mm 0.00 in0.0 mm 0.00 in0.0 mm
08:15 AM 42.1°F5.6°C 39.6°F4.2°C 91% 4.8 mph SE7.7 kmh SE 10.4 mph16.7 kmh 30.51 in1033.2 mb 0.00 in0.0 mm 0.00 in0.0 mm 0.00 in0.0 mm
08:30 AM 42.4°F5.8°C 39.7°F4.3°C 90% 5.7 mph ESE9.2 kmh ESE 14.0 mph22.5 kmh 30.51 in1033.2 mb 0.00 in0.0 mm 0.00 in0.0 mm 0.00 in0.0 mm
08:45 AM 42.8°F6.0°C 39.8°F4.3°C 89% 4.5 mph SE7.2 kmh SE 10.0 mph16.1 kmh 30.51 in1033.2 mb 0.00 in0.0 mm 0.00 in0.0 mm 0.00 in0.0 mm
09:00 AM 43.0°F6.1°C 39.4°F4.1°C 87% 6.8 mph S10.9 kmh S 14.7 mph23.7 kmh 30.51 in1033.2 mb 0.00 in0.0 mm 0.00 in0.0 mm 0.00 in0.0 mm
09:15 AM 43.7°F6.5°C 39.8°F4.3°C 86% 4.2 mph SE6.8 kmh SE 14.0 mph22.5 kmh 30.51 in1033.2 mb 0.00 in0.0 mm 0.00 in0.0 mm 0.00 in0.0 mm
09:30 AM 44.2°F6.8°C 39.4°F4.1°C 83% 8.7 mph SE14.0 kmh SE 17.2 mph27.7 kmh 30.48 in1032.2 mb 0.00 in0.0 mm 0.00 in0.0 mm 0.00 in0.0 mm
09:45 AM 45.1°F7.3°C 40.3°F4.6°C 83% 5.1 mph SSE8.2 kmh SSE 14.0 mph22.5 kmh 30.51 in1033.2 mb 0.00 in0.0 mm 0.00 in0.0 mm 0.00 in0.0 mm
10:00 AM 45.7°F7.6°C 40.5°F4.7°C 82% 4.6 mph SE7.4 kmh SE 11.8 mph19.0 kmh 30.51 in1033.2 mb 0.00 in0.0 mm 0.00 in0.0 mm 0.00 in0.0 mm
10:15 AM 46.4°F8.0°C 40.9°F4.9°C 81% 6.2 mph SE10.0 kmh SE 12.2 mph19.6 kmh 30.51 in1033.2 mb 0.00 in0.0 mm 0.00 in0.0 mm 0.00 in0.0 mm
10:30 AM 46.9°F8.3°C 40.8°F4.9°C 79% 5.6 mph SSE9.0 kmh SSE 12.5 mph20.1 kmh 30.51 in1033.2 mb 0.00 in0.0 mm 0.00 in0.0 mm 0.00 in0.0 mm
10:45 AM 47.3°F8.5°C 40.5°F4.7°C 77% 5.8 mph SE9.3 kmh SE 14.0 mph22.5 kmh 30.48 in1032.2 mb 0.00 in0.0 mm 0.00 in0.0 mm 0.00 in0.0 mm
11:00 AM 47.7°F8.7°C 40.8°F4.9°C 77% 5.8 mph S9.3 kmh S 11.8 mph19.0 kmh 30.48 in1032.2 mb 0.00 in0.0 mm 0.00 in0.0 mm 0.00 in0.0 mm
11:15 AM 46.9°F8.3°C 39.4°F4.1°C 75% 7.6 mph SSE12.2 kmh SSE 17.2 mph27.7 kmh 30.51 in1033.2 mb 0.00 in0.0 mm 0.00 in0.0 mm 0.00 in0.0 mm
11:30 AM 47.5°F8.6°C 40.3°F4.6°C 76% 7.9 mph SSE12.7 kmh SSE 16.8 mph27.0 kmh 30.48 in1032.2 mb 0.00 in0.0 mm 0.00 in0.0 mm 0.00 in0.0 mm
11:45 AM 48.2°F9.0°C 40.6°F4.8°C 75% 5.7 mph S9.2 kmh S 14.7 mph23.7 kmh 30.48 in1032.2 mb 0.00 in0.0 mm 0.00 in0.0 mm 0.00 in0.0 mm
12:00 PM 48.7°F9.3°C 40.8°F4.9°C 74% 6.6 mph S10.6 kmh S 16.5 mph26.6 kmh 30.48 in1032.2 mb 0.00 in0.0 mm 0.00 in0.0 mm 0.00 in0.0 mm
12:15 PM 49.1°F9.5°C 40.5°F4.7°C 72% 5.9 mph S9.5 kmh S 20.4 mph32.8 kmh 30.45 in1031.2 mb 0.00 in0.0 mm 0.00 in0.0 mm 0.00 in0.0 mm
12:30 PM 48.2°F9.0°C 40.3°F4.6°C 74% 6.9 mph WSW11.1 kmh WSW 12.5 mph20.1 kmh 30.45 in1031.2 mb 0.00 in0.0 mm 0.00 in0.0 mm 0.00 in0.0 mm
12:45 PM 48.4°F9.1°C 41.5°F5.3°C 77% 7.2 mph SW11.6 kmh SW 16.5 mph26.6 kmh 30.48 in1032.2 mb 0.00 in0.0 mm 0.00 in0.0 mm 0.00 in0.0 mm
01:00 PM 48.4°F9.1°C 40.8°F4.9°C 75% 6.8 mph SSW10.9 kmh SSW 20.0 mph32.2 kmh 30.45 in1031.2 mb 0.00 in0.0 mm 0.00 in0.0 mm 0.00 in0.0 mm
01:15 PM 47.7°F8.7°C 40.5°F4.7°C 76% 8.9 mph SSW14.3 kmh SSW 15.4 mph24.8 kmh 30.48 in1032.2 mb 0.00 in0.0 mm 0.00 in0.0 mm 0.00 in0.0 mm
01:30 PM 46.6°F8.1°C 39.4°F4.1°C 76% 10.3 mph SW16.6 kmh SW 17.5 mph28.2 kmh 30.48 in1032.2 mb 0.00 in0.0 mm 0.00 in0.0 mm 0.00 in0.0 mm
01:45 PM 45.5°F7.5°C 39.0°F3.9°C 78% 10.3 mph SW16.6 kmh SW 23.6 mph38.0 kmh 30.48 in1032.2 mb 0.00 in0.0 mm 0.00 in0.0 mm 0.00 in0.0 mm
02:00 PM 45.1°F7.3°C 39.0°F3.9°C 79% 8.6 mph SW13.8 kmh SW 17.2 mph27.7 kmh 30.51 in1033.2 mb 0.00 in0.0 mm 0.00 in0.0 mm 0.00 in0.0 mm
02:15 PM 45.3°F7.4°C 39.2°F4.0°C 79% 8.0 mph S12.9 kmh S 17.5 mph28.2 kmh 30.48 in1032.2 mb 0.00 in0.0 mm 0.00 in0.0 mm 0.00 in0.0 mm
02:30 PM 45.5°F7.5°C 39.4°F4.1°C 79% 8.7 mph S14.0 kmh S 17.5 mph28.2 kmh 30.45 in1031.2 mb 0.00 in0.0 mm 0.00 in0.0 mm 0.00 in0.0 mm
02:45 PM 46.0°F7.8°C 39.9°F4.4°C 79% 8.0 mph S12.9 kmh S 14.0 mph22.5 kmh 30.45 in1031.2 mb 0.00 in0.0 mm 0.00 in0.0 mm 0.00 in0.0 mm
03:00 PM 46.8°F8.2°C 40.3°F4.6°C 78% 8.0 mph S12.9 kmh S 17.5 mph28.2 kmh 30.42 in1030.1 mb 0.00 in0.0 mm 0.00 in0.0 mm 0.00 in0.0 mm
03:15 PM 47.1°F8.4°C 39.6°F4.2°C 75% 8.8 mph S14.2 kmh S 19.7 mph31.7 kmh 30.39 in1029.1 mb 0.00 in0.0 mm 0.00 in0.0 mm 0.00 in0.0 mm
03:30 PM 47.1°F8.4°C 39.3°F4.1°C 74% 6.9 mph S11.1 kmh S 20.0 mph32.2 kmh 30.39 in1029.1 mb 0.00 in0.0 mm 0.00 in0.0 mm 0.00 in0.0 mm
03:45 PM 46.8°F8.2°C 38.2°F3.4°C 72% 7.7 mph S12.4 kmh S 24.7 mph39.8 kmh 30.42 in1030.1 mb 0.00 in0.0 mm 0.00 in0.0 mm 0.00 in0.0 mm
04:00 PM 46.8°F8.2°C 38.6°F3.7°C 73% 9.3 mph S15.0 kmh S 20.0 mph32.2 kmh 30.39 in1029.1 mb 0.00 in0.0 mm 0.00 in0.0 mm 0.00 in0.0 mm
04:15 PM 47.1°F8.4°C 38.9°F3.8°C 73% 6.5 mph S10.5 kmh S 14.7 mph23.7 kmh 30.39 in1029.1 mb 0.00 in0.0 mm 0.00 in0.0 mm 0.00 in0.0 mm
04:30 PM 47.1°F8.4°C 38.6°F3.7°C 72% 5.8 mph S9.3 kmh S 17.5 mph28.2 kmh 30.36 in1028.1 mb 0.00 in0.0 mm 0.00 in0.0 mm 0.00 in0.0 mm
04:45 PM 47.1°F8.4°C 38.9°F3.8°C 73% 6.7 mph S10.8 kmh S 14.0 mph22.5 kmh 30.36 in1028.1 mb 0.00 in0.0 mm 0.00 in0.0 mm 0.00 in0.0 mm
05:00 PM 46.8°F8.2°C 38.6°F3.7°C 73% 6.4 mph S10.3 kmh S 16.5 mph26.6 kmh 30.36 in1028.1 mb 0.00 in0.0 mm 0.00 in0.0 mm 0.00 in0.0 mm
05:15 PM 46.0°F7.8°C 38.6°F3.7°C 75% 8.6 mph S13.8 kmh S 20.0 mph32.2 kmh 30.36 in1028.1 mb 0.00 in0.0 mm 0.00 in0.0 mm 0.00 in0.0 mm
05:30 PM 45.5°F7.5°C 38.7°F3.7°C 77% 5.7 mph S9.2 kmh S 24.7 mph39.8 kmh 30.36 in1028.1 mb 0.00 in0.0 mm 0.00 in0.0 mm 0.00 in0.0 mm
05:45 PM 44.4°F6.9°C 38.3°F3.5°C 79% 7.7 mph S12.4 kmh S 15.4 mph24.8 kmh 30.36 in1028.1 mb 0.00 in0.0 mm 0.00 in0.0 mm 0.00 in0.0 mm
06:00 PM 43.7°F6.5°C 38.6°F3.7°C 82% 7.8 mph S12.6 kmh S 17.2 mph27.7 kmh 30.33 in1027.1 mb 0.00 in0.0 mm 0.00 in0.0 mm 0.00 in0.0 mm
06:15 PM 43.5°F6.4°C 38.7°F3.7°C 83% 8.6 mph S13.8 kmh S 21.8 mph35.1 kmh 30.33 in1027.1 mb 0.00 in0.0 mm 0.00 in0.0 mm 0.00 in0.0 mm
06:30 PM 43.5°F6.4°C 39.0°F3.9°C 84% 8.1 mph S13.0 kmh S 20.8 mph33.5 kmh 30.33 in1027.1 mb 0.00 in0.0 mm 0.00 in0.0 mm 0.00 in0.0 mm
06:45 PM 43.3°F6.3°C 39.4°F4.1°C 86% 8.3 mph S13.4 kmh S 17.5 mph28.2 kmh 30.36 in1028.1 mb 0.00 in0.0 mm 0.00 in0.0 mm 0.00 in0.0 mm
07:00 PM 43.2°F6.2°C 39.6°F4.2°C 87% 7.9 mph S12.7 kmh S 17.5 mph28.2 kmh 30.36 in1028.1 mb 0.00 in0.0 mm 0.00 in0.0 mm 0.00 in0.0 mm
07:15 PM 43.2°F6.2°C 40.1°F4.5°C 89% 8.9 mph S14.3 kmh S 19.7 mph31.7 kmh 30.36 in1028.1 mb 0.00 in0.0 mm 0.00 in0.0 mm 0.00 in0.0 mm
07:30 PM 43.2°F6.2°C 40.1°F4.5°C 89% 7.3 mph S11.7 kmh S 23.6 mph38.0 kmh 30.36 in1028.1 mb 0.00 in0.0 mm 0.00 in0.0 mm 0.00 in0.0 mm
07:45 PM 43.2°F6.2°C 40.4°F4.7°C 90% 8.6 mph S13.8 kmh S 17.2 mph27.7 kmh 30.36 in1028.1 mb 0.00 in0.0 mm 0.00 in0.0 mm 0.00 in0.0 mm
08:00 PM 43.2°F6.2°C 40.7°F4.8°C 91% 9.2 mph S14.8 kmh S 24.7 mph39.8 kmh 30.36 in1028.1 mb 0.00 in0.0 mm 0.00 in0.0 mm 0.00 in0.0 mm
08:15 PM 43.0°F6.1°C 40.8°F4.9°C 92% 7.5 mph S12.1 kmh S 17.2 mph27.7 kmh 30.36 in1028.1 mb 0.00 in0.0 mm 0.00 in0.0 mm 0.00 in0.0 mm
08:30 PM 42.8°F6.0°C 40.9°F4.9°C 93% 6.5 mph S10.5 kmh S 20.4 mph32.8 kmh 30.33 in1027.1 mb 0.00 in0.0 mm 0.00 in0.0 mm 0.00 in0.0 mm
08:45 PM 42.8°F6.0°C 41.2°F5.1°C 94% 9.2 mph S14.8 kmh S 21.1 mph34.0 kmh 30.33 in1027.1 mb 0.00 in0.0 mm 0.00 in0.0 mm 0.00 in0.0 mm
09:00 PM 42.8°F6.0°C 41.2°F5.1°C 94% 8.5 mph S13.7 kmh S 23.3 mph37.5 kmh 30.30 in1026.1 mb 0.00 in0.0 mm 0.00 in0.0 mm 0.00 in0.0 mm
09:15 PM 43.0°F6.1°C 41.6°F5.3°C 95% 10.3 mph S16.6 kmh S 30.1 mph48.4 kmh 30.30 in1026.1 mb 0.00 in0.0 mm 0.00 in0.0 mm 0.00 in0.0 mm
09:32 PM 43.0°F6.1°C 41.6°F5.3°C 95% 7.6 mph S12.2 kmh S 17.5 mph28.2 kmh 30.27 in1025.1 mb 0.00 in0.0 mm 0.00 in0.0 mm 0.00 in0.0 mm
09:45 PM 43.2°F6.2°C 41.8°F5.4°C 95% 7.4 mph S11.9 kmh S 17.2 mph27.7 kmh 30.27 in1025.1 mb 0.00 in0.0 mm 0.00 in0.0 mm 0.00 in0.0 mm
10:00 PM 43.3°F6.3°C 42.0°F5.6°C 95% 7.1 mph S11.4 kmh S 17.5 mph28.2 kmh 30.27 in1025.1 mb 0.00 in0.0 mm 0.00 in0.0 mm 0.00 in0.0 mm
10:15 PM 43.5°F6.4°C 42.2°F5.7°C 95% 6.9 mph S11.1 kmh S 21.1 mph34.0 kmh 30.30 in1026.1 mb 0.00 in0.0 mm 0.00 in0.0 mm 0.00 in0.0 mm
10:30 PM 43.7°F6.5°C 42.4°F5.8°C 95% 7.5 mph S12.1 kmh S 17.5 mph28.2 kmh 30.30 in1026.1 mb 0.00 in0.0 mm 0.00 in0.0 mm 0.00 in0.0 mm
10:45 PM 43.9°F6.6°C 42.5°F5.8°C 95% 8.6 mph S13.8 kmh S 17.2 mph27.7 kmh 30.27 in1025.1 mb 0.00 in0.0 mm 0.00 in0.0 mm 0.00 in0.0 mm
11:00 PM 44.1°F6.7°C 42.7°F5.9°C 95% 7.7 mph S12.4 kmh S 15.7 mph25.3 kmh 30.27 in1025.1 mb 0.00 in0.0 mm 0.00 in0.0 mm 0.00 in0.0 mm
11:15 PM 44.1°F6.7°C 42.7°F5.9°C 95% 8.1 mph S13.0 kmh S 19.7 mph31.7 kmh 30.27 in1025.1 mb 0.00 in0.0 mm 0.00 in0.0 mm 0.00 in0.0 mm
11:30 PM 44.1°F6.7°C 42.7°F5.9°C 95% 9.1 mph S14.6 kmh S 19.0 mph30.6 kmh 30.27 in1025.1 mb 0.00 in0.0 mm 0.00 in0.0 mm 0.00 in0.0 mm
11:45 PM 44.1°F6.7°C 42.7°F5.9°C 95% 7.7 mph S12.4 kmh S 20.4 mph32.8 kmh 30.27 in1025.1 mb 0.00 in0.0 mm 0.00 in0.0 mm 0.00 in0.0 mm